Kentfield, California
Current Conditions -  °F | °C
As of 6:15 PM on Saturday 25 Oct 2014 (Local Time) from KDVO Reporting Station
Scattered Clouds Scattered Clouds  
Wind Chill: 63°   Ceiling: Unl
Heat Index: 63°   Visibility: 10mi
Dew Point: 57°   Wind: 7mph
Humidity: 82%   Direction: 240°WSW
Pressure: 30.06"   Gusts: NA
Location:  37.95°N, 122.54°W
Report Text: KDVO 260115Z AUTO 24006KT 10SM SCT060 17/14 A3006 RMK AO2
Loading
Personal Weather Stations






























Interactive Weather Map
Tropical Storm Tracking
New forecast layout! Learn more

10-Day Weather Forecast

Advertisements
Track Severe Weather on mobile